createdAt,value
2023-04-21T00:01:28.420Z,5.75
2023-04-21T00:04:30.461Z,5.00
2023-04-21T00:07:32.421Z,5.25
2023-04-21T00:10:34.289Z,5.95
2023-04-21T00:13:37.364Z,5.97
2023-04-21T00:16:39.292Z,4.47
2023-04-21T00:19:41.137Z,4.45
2023-04-21T00:22:42.956Z,4.90
2023-04-21T00:25:44.774Z,4.43
2023-04-21T00:28:47.913Z,4.45
2023-04-21T00:31:49.782Z,4.68
2023-04-21T00:34:51.643Z,4.68
2023-04-21T00:37:53.485Z,4.57
2023-04-21T00:40:55.269Z,4.65
2023-04-21T00:44:06.114Z,4.30
2023-04-21T00:47:07.908Z,5.22
2023-04-21T00:50:11.293Z,5.72
2023-04-21T00:53:14.620Z,4.47
2023-04-21T00:56:17.269Z,5.30
2023-04-21T00:59:20.624Z,3.85
2023-04-21T01:02:23.082Z,4.40
2023-04-21T01:05:25.097Z,4.72
2023-04-21T01:08:27.835Z,4.25
2023-04-21T01:11:29.526Z,5.28
2023-04-21T01:14:32.738Z,4.47
2023-04-21T01:17:34.497Z,4.80
2023-04-21T01:20:36.520Z,4.88
2023-04-21T01:23:39.794Z,4.53
2023-04-21T01:26:41.580Z,5.00
2023-04-21T01:29:43.768Z,4.32
2023-04-21T01:32:45.576Z,4.55
2023-04-21T01:35:47.570Z,4.50
2023-04-21T01:38:52.324Z,4.72
2023-04-21T01:41:55.159Z,4.80
2023-04-21T01:44:57.555Z,4.90
2023-04-21T01:47:59.457Z,4.90
2023-04-21T01:51:01.226Z,5.10
2023-04-21T01:54:04.576Z,4.50
2023-04-21T01:57:06.419Z,5.00
2023-04-21T02:00:09.397Z,4.55
2023-04-21T02:03:11.335Z,5.63
2023-04-21T02:06:13.176Z,4.82
2023-04-21T02:09:16.368Z,4.75
2023-04-21T02:12:18.834Z,4.45
2023-04-21T02:15:20.577Z,4.13
2023-04-21T02:18:22.379Z,4.32
2023-04-21T02:21:24.849Z,4.90
2023-04-21T02:24:27.954Z,5.82
2023-04-21T02:27:29.678Z,4.57
2023-04-21T02:30:31.554Z,4.10
2023-04-21T02:33:33.294Z,4.40
2023-04-21T02:36:35.081Z,4.75
2023-04-21T02:39:38.255Z,4.85
2023-04-21T02:42:40.116Z,4.70
2023-04-21T02:45:41.866Z,4.80
2023-04-21T02:48:43.662Z,5.40
2023-04-21T02:51:45.421Z,5.53
2023-04-21T02:54:48.523Z,5.38
2023-04-21T02:57:50.637Z,4.93
2023-04-21T03:00:52.401Z,4.70
2023-04-21T03:03:54.293Z,4.82
2023-04-21T03:06:56.099Z,5.32
2023-04-21T03:09:59.237Z,6.22
2023-04-21T03:13:01.062Z,5.88
2023-04-21T03:16:02.927Z,5.10
2023-04-21T03:19:04.716Z,5.38
2023-04-21T03:22:06.742Z,5.90
2023-04-21T03:25:09.850Z,5.72
2023-04-21T03:28:11.582Z,4.88
2023-04-21T03:31:13.430Z,5.60
2023-04-21T03:34:15.359Z,5.53
2023-04-21T03:37:17.206Z,5.32
2023-04-21T03:40:20.484Z,5.50
2023-04-21T03:43:22.342Z,5.32
2023-04-21T03:46:24.110Z,4.60
2023-04-21T03:49:26.099Z,4.90
2023-04-21T03:52:27.911Z,5.25
2023-04-21T03:55:30.979Z,5.05
2023-04-21T03:58:32.742Z,5.68
2023-04-21T04:01:34.728Z,6.03
2023-04-21T04:04:36.598Z,5.47
2023-04-21T04:07:38.442Z,5.47
2023-04-21T04:10:41.646Z,6.47
2023-04-21T04:13:43.414Z,6.03
2023-04-21T04:16:45.174Z,5.93
2023-04-21T04:19:46.981Z,6.10
2023-04-21T04:22:48.760Z,6.80
2023-04-21T04:25:51.895Z,6.20
2023-04-21T04:28:53.685Z,5.88
2023-04-21T04:31:55.606Z,6.75
2023-04-21T04:34:57.372Z,6.50
2023-04-21T04:37:59.120Z,5.97
2023-04-21T04:41:02.234Z,5.78
2023-04-21T04:44:04.157Z,5.80
2023-04-21T04:47:06.144Z,6.60
2023-04-21T04:50:08.626Z,6.80
2023-04-21T04:53:10.502Z,5.78
2023-04-21T04:56:13.580Z,6.30
2023-04-21T04:59:15.287Z,6.03
2023-04-21T05:02:17.107Z,6.03
2023-04-21T05:05:18.916Z,7.07
2023-04-21T05:08:20.680Z,7.53
2023-04-21T05:11:23.888Z,6.60
2023-04-21T05:14:26.688Z,6.00
2023-04-21T05:17:28.516Z,5.90
2023-04-21T05:20:30.371Z,5.68
2023-04-21T05:23:32.174Z,6.90
2023-04-21T05:26:35.366Z,7.97
2023-04-21T05:29:37.137Z,7.25
2023-04-21T05:32:39.026Z,5.55
2023-04-21T05:35:40.855Z,5.72
2023-04-21T05:38:43.104Z,5.82
2023-04-21T05:41:46.169Z,6.13
2023-04-21T05:44:47.972Z,6.40
2023-04-21T05:47:49.707Z,6.78
2023-04-21T05:50:51.484Z,7.82
2023-04-21T05:53:53.281Z,7.30
2023-04-21T05:56:56.419Z,8.07
2023-04-21T05:59:58.616Z,7.82
2023-04-21T06:03:00.430Z,6.97
2023-04-21T06:06:04.079Z,8.25
2023-04-21T06:09:05.860Z,7.82
2023-04-21T06:12:09.194Z,8.07
2023-04-21T06:15:11.127Z,7.90
2023-04-21T06:18:12.919Z,8.65
2023-04-21T06:21:14.737Z,8.23
2023-04-21T06:24:16.778Z,8.63
2023-04-21T06:27:19.995Z,9.60
2023-04-21T06:30:21.927Z,8.45
2023-04-21T06:33:23.698Z,8.85
2023-04-21T06:36:25.408Z,8.85
2023-04-21T06:39:28.782Z,8.55
2023-04-21T06:42:31.898Z,8.88
2023-04-21T06:45:33.624Z,8.70
2023-04-21T06:48:35.321Z,9.35
2023-04-21T06:51:37.161Z,8.95
2023-04-21T06:54:38.960Z,9.55
2023-04-21T06:57:42.221Z,9.90
2023-04-21T07:00:43.947Z,9.18
2023-04-21T07:03:46.090Z,8.52
2023-04-21T07:06:48.003Z,9.68
2023-04-21T07:09:49.720Z,9.75
2023-04-21T07:12:52.944Z,9.80
2023-04-21T07:15:54.872Z,8.75
2023-04-21T07:18:56.963Z,8.40
2023-04-21T07:21:58.763Z,8.13
2023-04-21T07:25:00.564Z,8.20
2023-04-21T07:28:03.906Z,7.95
2023-04-21T07:31:05.754Z,7.75
2023-04-21T07:34:07.492Z,6.68
2023-04-21T07:37:09.299Z,5.25
2023-04-21T07:40:11.706Z,5.72
2023-04-21T07:43:14.997Z,8.27
2023-04-21T07:46:16.831Z,6.38
2023-04-21T07:49:18.776Z,4.47
2023-04-21T07:52:20.663Z,4.30
2023-04-21T07:55:22.439Z,5.03
2023-04-21T07:58:25.576Z,5.10
2023-04-21T08:01:27.420Z,4.72
2023-04-21T08:04:29.406Z,5.78
2023-04-21T08:07:31.233Z,5.90
2023-04-21T08:10:33.112Z,6.90
2023-04-21T08:13:36.291Z,6.30
2023-04-21T08:16:38.479Z,5.85
2023-04-21T08:19:40.600Z,5.90
2023-04-21T08:22:42.734Z,5.85
2023-04-21T08:25:44.611Z,5.85
2023-04-21T08:28:47.761Z,6.10
2023-04-21T08:31:49.663Z,6.13
2023-04-21T08:34:52.471Z,6.00
2023-04-21T08:37:54.266Z,6.30
2023-04-21T08:40:58.761Z,6.45
2023-04-21T08:44:02.460Z,6.80
2023-04-21T08:47:05.168Z,6.45
2023-04-21T08:50:12.045Z,6.93
2023-04-21T08:53:13.951Z,6.85
2023-04-21T08:56:15.673Z,6.90
2023-04-21T08:59:18.874Z,6.97
2023-04-21T09:02:22.084Z,7.32
2023-04-21T09:05:24.991Z,7.70
2023-04-21T09:08:28.031Z,7.70
2023-04-21T09:11:33.350Z,7.82
2023-04-21T09:14:36.474Z,7.57
2023-04-21T09:17:38.246Z,7.88
2023-04-21T09:20:40.593Z,8.02
2023-04-21T09:23:43.584Z,7.82
2023-04-21T09:26:45.341Z,7.70
2023-04-21T09:29:48.690Z,6.95
2023-04-21T09:32:50.533Z,7.38
2023-04-21T09:35:52.830Z,7.03
2023-04-21T09:39:24.264Z,6.80
2023-04-21T09:42:20.407Z,7.40
2023-04-21T09:45:39.194Z,6.72
2023-04-21T09:48:44.734Z,7.80
2023-04-21T09:54:57.212Z,6.85
2023-04-21T09:58:00.778Z,6.32
2023-04-21T10:01:04.653Z,6.05
2023-04-21T10:04:07.080Z,5.25
2023-04-21T10:07:10.212Z,5.80
2023-04-21T10:10:19.060Z,5.45
2023-04-21T10:13:22.430Z,5.35
2023-04-21T10:16:26.964Z,5.65
2023-04-21T10:19:28.780Z,4.97
2023-04-21T10:22:32.097Z,4.53
2023-04-21T10:25:33.903Z,5.00
2023-04-21T10:28:43.446Z,4.65
2023-04-21T10:31:52.454Z,4.13
2023-04-21T10:34:56.994Z,4.47
2023-04-21T10:37:58.992Z,4.15
2023-04-21T10:41:25.825Z,4.20
2023-04-21T10:44:29.042Z,4.30
2023-04-21T10:47:37.737Z,4.75
2023-04-21T10:50:39.783Z,3.97
2023-04-21T10:53:43.776Z,3.83
2023-04-21T10:56:45.554Z,3.72
2023-04-21T10:59:48.307Z,4.32
2023-04-21T11:02:59.699Z,3.88
2023-04-21T11:06:14.765Z,3.38
2023-04-21T11:09:16.548Z,3.80
2023-04-21T11:12:18.924Z,3.97
2023-04-21T11:15:20.729Z,3.42
2023-04-21T11:18:32.689Z,3.78
2023-04-21T11:21:34.462Z,3.95
2023-04-21T11:24:36.191Z,3.80
2023-04-21T11:27:37.960Z,3.20
2023-04-21T11:30:39.767Z,3.35
2023-04-21T11:33:43.030Z,3.20
2023-04-21T11:36:46.154Z,3.10
2023-04-21T11:39:47.902Z,3.22
2023-04-21T11:42:50.406Z,3.20
2023-04-21T11:45:52.391Z,3.50
2023-04-21T11:49:03.401Z,3.90
2023-04-21T11:52:05.199Z,3.28
2023-04-21T11:55:12.089Z,3.60
2023-04-21T11:58:14.132Z,2.72
2023-04-21T12:01:16.364Z,3.20
2023-04-21T12:04:20.988Z,3.53
2023-04-21T12:07:23.200Z,3.00
2023-04-21T12:10:24.908Z,3.40
2023-04-21T12:13:27.859Z,2.92
2023-04-21T12:16:29.820Z,3.28
2023-04-21T12:19:41.031Z,2.72
2023-04-21T12:22:42.907Z,2.90
2023-04-21T12:25:45.877Z,3.20
2023-04-21T12:28:47.606Z,3.00
2023-04-21T12:31:49.441Z,3.10
2023-04-21T12:34:52.827Z,3.13
2023-04-21T12:37:54.525Z,2.88
2023-04-21T12:40:56.314Z,3.08
2023-04-21T12:43:57.975Z,2.97
2023-04-21T12:46:59.790Z,2.88
2023-04-21T12:50:03.563Z,2.78
2023-04-21T12:53:05.323Z,3.08
2023-04-21T12:56:07.266Z,3.20
2023-04-21T12:59:09.598Z,3.05
2023-04-21T13:02:12.190Z,2.97
2023-04-21T13:05:15.300Z,2.83
2023-04-21T13:08:17.023Z,2.60
2023-04-21T13:11:18.801Z,3.03
2023-04-21T13:14:20.603Z,3.03
2023-04-21T13:17:22.705Z,2.40
2023-04-21T13:20:25.907Z,2.80
2023-04-21T13:23:27.655Z,2.65
2023-04-21T13:26:30.928Z,4.40
2023-04-21T13:29:32.893Z,3.63
2023-04-21T13:32:34.909Z,3.75
2023-04-21T13:35:38.411Z,2.80
2023-04-21T13:38:40.295Z,2.55
2023-04-21T13:41:41.997Z,2.72
2023-04-21T13:44:43.776Z,2.75
2023-04-21T13:47:45.632Z,2.72
2023-04-21T13:50:48.790Z,2.55
2023-04-21T13:53:50.540Z,2.22
2023-04-21T13:56:52.298Z,2.50
2023-04-21T13:59:54.158Z,2.15
2023-04-21T14:02:56.184Z,2.40
2023-04-21T14:05:59.481Z,2.15
2023-04-21T14:09:01.286Z,2.28
2023-04-21T14:12:03.363Z,2.55
2023-04-21T14:15:06.240Z,2.40
2023-04-21T14:18:08.192Z,2.17
2023-04-21T14:21:11.450Z,2.00
2023-04-21T14:24:13.248Z,2.30
2023-04-21T14:27:15.126Z,2.20
2023-04-21T14:30:16.981Z,2.30
2023-04-21T14:33:18.826Z,2.30
2023-04-21T14:36:22.104Z,2.30
2023-04-21T14:39:23.997Z,2.33
2023-04-21T14:42:25.710Z,2.00
2023-04-21T14:45:27.659Z,2.22
2023-04-21T14:48:29.552Z,2.00
2023-04-21T14:51:32.803Z,2.30
2023-04-21T14:54:34.615Z,2.17
2023-04-21T14:57:36.370Z,2.13
2023-04-21T15:00:38.245Z,2.10
2023-04-21T15:03:40.244Z,1.88
2023-04-21T15:06:43.477Z,1.75
2023-04-21T15:09:45.232Z,1.80
2023-04-21T15:12:47.078Z,2.20
2023-04-21T15:15:48.935Z,2.30
2023-04-21T15:18:50.702Z,2.17
2023-04-21T15:21:53.935Z,2.05
2023-04-21T15:24:55.776Z,2.00
2023-04-21T15:27:57.502Z,1.90
2023-04-21T15:30:59.298Z,2.10
2023-04-21T15:34:01.169Z,2.25
2023-04-21T15:37:04.433Z,2.05
2023-04-21T15:40:08.011Z,2.15
2023-04-21T15:43:09.790Z,1.90
2023-04-21T15:46:11.546Z,2.10
2023-04-21T15:49:13.457Z,2.08
2023-04-21T15:52:16.688Z,1.92
2023-04-21T15:55:18.579Z,1.80
2023-04-21T15:58:20.420Z,2.20
2023-04-21T16:01:22.502Z,1.75
2023-04-21T16:04:24.679Z,1.70
2023-04-21T16:07:28.150Z,1.83
2023-04-21T16:10:29.920Z,1.77
2023-04-21T16:13:31.909Z,1.80
2023-04-21T16:16:33.714Z,1.75
2023-04-21T16:19:35.534Z,1.90
2023-04-21T16:22:38.680Z,2.08
2023-04-21T16:25:40.637Z,2.05
2023-04-21T16:28:42.492Z,2.20
2023-04-21T16:31:44.325Z,1.90
2023-04-21T16:34:46.202Z,1.70
2023-04-21T16:37:49.483Z,1.95
2023-04-21T16:40:51.311Z,2.17
2023-04-21T16:43:53.086Z,1.80
2023-04-21T16:46:55.216Z,1.60
2023-04-21T16:49:57.155Z,2.00
2023-04-21T16:53:00.732Z,1.63
2023-04-21T16:56:02.601Z,2.20
2023-04-21T16:59:04.370Z,1.70
2023-04-21T17:02:06.402Z,2.15
2023-04-21T17:05:09.089Z,1.90
2023-04-21T17:08:12.500Z,1.80
2023-04-21T17:11:14.454Z,2.20
2023-04-21T17:14:16.216Z,1.85
2023-04-21T17:17:18.031Z,2.00
2023-04-21T17:20:19.809Z,1.92
2023-04-21T17:23:22.848Z,1.80
2023-04-21T17:26:24.800Z,2.15
2023-04-21T17:29:26.528Z,2.38
2023-04-21T17:32:29.158Z,2.17
2023-04-21T17:35:32.556Z,2.10
2023-04-21T17:38:35.717Z,2.20
2023-04-21T17:41:37.397Z,2.40
2023-04-21T17:44:39.466Z,2.30
2023-04-21T17:47:41.949Z,2.50
2023-04-21T17:50:43.711Z,2.55
2023-04-21T17:53:47.085Z,2.22
2023-04-21T17:56:49.116Z,2.88
2023-04-21T17:59:51.075Z,3.13
2023-04-21T18:02:52.971Z,2.90
2023-04-21T18:05:55.508Z,2.47
2023-04-21T18:08:58.691Z,2.40
2023-04-21T18:12:00.459Z,2.92
2023-04-21T18:15:02.750Z,3.05
2023-04-21T18:18:05.011Z,2.95
2023-04-21T18:21:06.886Z,3.40
2023-04-21T18:24:10.130Z,2.72
2023-04-21T18:27:12.408Z,3.15
2023-04-21T18:30:14.541Z,3.13
2023-04-21T18:33:16.952Z,3.03
2023-04-21T18:36:18.786Z,3.40
2023-04-21T18:39:21.919Z,3.00
2023-04-21T18:42:24.119Z,2.97
2023-04-21T18:45:26.222Z,3.00
2023-04-21T18:48:27.986Z,3.60
2023-04-21T18:51:30.169Z,3.33
2023-04-21T18:54:34.905Z,2.97
2023-04-21T18:57:37.282Z,3.50
2023-04-21T19:00:39.848Z,3.33
2023-04-21T19:03:42.804Z,3.20
2023-04-21T19:06:44.894Z,3.03
2023-04-21T19:09:49.541Z,3.22
2023-04-21T19:12:51.840Z,2.60
2023-04-21T19:15:54.286Z,3.10
2023-04-21T19:18:56.328Z,3.10
2023-04-21T19:21:58.651Z,3.33
2023-04-21T19:25:02.306Z,2.78
2023-04-21T19:28:04.649Z,3.58
2023-04-21T19:31:07.484Z,3.42
2023-04-21T19:34:09.514Z,3.20
2023-04-21T19:37:11.522Z,3.75
2023-04-21T19:40:17.711Z,3.50
2023-04-21T19:43:19.598Z,2.88
2023-04-21T19:46:22.439Z,2.88
2023-04-21T19:49:24.902Z,2.85
2023-04-21T19:52:27.287Z,2.80
2023-04-21T19:55:32.649Z,3.08
2023-04-21T19:58:40.704Z,2.95
2023-04-21T20:01:43.665Z,2.60
2023-04-21T20:04:45.827Z,2.70
2023-04-21T20:07:47.629Z,3.17
2023-04-21T20:10:51.132Z,2.97
2023-04-21T20:13:52.881Z,2.53
2023-04-21T20:16:55.427Z,2.97
2023-04-21T20:19:57.348Z,3.47
2023-04-21T20:22:59.491Z,2.97
2023-04-21T20:26:02.648Z,3.38
2023-04-21T20:29:04.894Z,3.15
2023-04-21T20:32:06.771Z,3.60
2023-04-21T20:35:09.375Z,2.63
2023-04-21T20:38:11.363Z,3.10
2023-04-21T20:41:14.492Z,2.95
2023-04-21T20:44:16.350Z,3.28
2023-04-21T20:47:18.257Z,3.13
2023-04-21T20:50:20.895Z,3.35
2023-04-21T20:53:23.521Z,3.08
2023-04-21T20:56:26.919Z,3.42
2023-04-21T20:59:28.651Z,3.50
2023-04-21T21:02:30.605Z,3.72
2023-04-21T21:05:32.496Z,3.33
2023-04-21T21:08:34.405Z,3.38
2023-04-21T21:11:37.516Z,3.50
2023-04-21T21:14:39.399Z,3.40
2023-04-21T21:17:41.157Z,3.78
2023-04-21T21:20:42.923Z,2.88
2023-04-21T21:23:44.691Z,3.70
2023-04-21T21:26:47.879Z,3.15
2023-04-21T21:29:49.796Z,3.45
2023-04-21T21:32:51.626Z,3.60
2023-04-21T21:35:53.650Z,3.60
2023-04-21T21:38:55.487Z,3.40
2023-04-21T21:41:58.563Z,3.15
2023-04-21T21:45:00.341Z,3.55
2023-04-21T21:48:02.206Z,3.35
2023-04-21T21:51:04.146Z,3.38
2023-04-21T21:54:05.937Z,3.60
2023-04-21T21:57:09.110Z,3.50
2023-04-21T22:00:11.641Z,3.10
2023-04-21T22:03:13.485Z,3.70
2023-04-21T22:06:17.179Z,3.38
2023-04-21T22:09:19.235Z,3.60
2023-04-21T22:12:22.399Z,3.42
2023-04-21T22:15:24.126Z,3.60
2023-04-21T22:18:25.953Z,4.15
2023-04-21T22:21:27.663Z,3.80
2023-04-21T22:24:29.442Z,3.92
2023-04-21T22:27:32.495Z,4.25
2023-04-21T22:30:34.375Z,3.50
2023-04-21T22:33:36.277Z,3.88
2023-04-21T22:36:38.061Z,3.50
2023-04-21T22:39:39.952Z,3.72
2023-04-21T22:42:43.525Z,3.75
2023-04-21T22:45:45.332Z,3.88
2023-04-21T22:48:47.050Z,3.67
2023-04-21T22:51:48.760Z,4.00
2023-04-21T22:54:50.513Z,4.00
2023-04-21T22:57:53.596Z,4.15
2023-04-21T23:00:55.352Z,4.18
2023-04-21T23:03:57.191Z,3.85
2023-04-21T23:06:59.185Z,4.00
2023-04-21T23:10:00.953Z,3.75
2023-04-21T23:13:04.044Z,3.85
2023-04-21T23:16:06.059Z,3.90
2023-04-21T23:19:07.809Z,3.50
2023-04-21T23:22:09.753Z,3.47
2023-04-21T23:25:11.571Z,3.80
2023-04-21T23:28:14.646Z,3.88
2023-04-21T23:31:16.504Z,3.88
2023-04-21T23:34:18.503Z,3.50
2023-04-21T23:37:20.226Z,4.07
2023-04-21T23:40:22.058Z,4.10
2023-04-21T23:43:25.300Z,4.00
2023-04-21T23:46:27.054Z,3.55
2023-04-21T23:49:28.843Z,3.75
2023-04-21T23:52:30.585Z,3.65
2023-04-21T23:55:32.334Z,3.85
2023-04-21T23:58:35.509Z,4.07
